sensor_id;sensor_type;location;lat;lon;timestamp;P1;durP1;ratioP1;P2;durP2;ratioP2
48613;SDS011;34408;51.426;5.444;2022-12-04T00:01:13;46.50;;;22.48;;
48613;SDS011;34408;51.426;5.444;2022-12-04T00:03:41;46.53;;;23.45;;
48613;SDS011;34408;51.426;5.444;2022-12-04T00:06:10;44.75;;;22.33;;
48613;SDS011;34408;51.426;5.444;2022-12-04T00:08:39;41.00;;;23.10;;
48613;SDS011;34408;51.426;5.444;2022-12-04T00:11:08;42.78;;;22.65;;
48613;SDS011;34408;51.426;5.444;2022-12-04T00:13:37;43.25;;;21.80;;
48613;SDS011;34408;51.426;5.444;2022-12-04T00:16:07;44.88;;;22.70;;
48613;SDS011;34408;51.426;5.444;2022-12-04T00:18:37;44.60;;;23.60;;
48613;SDS011;34408;51.426;5.444;2022-12-04T00:21:05;45.78;;;22.33;;
48613;SDS011;34408;51.426;5.444;2022-12-04T00:23:34;48.47;;;23.63;;
48613;SDS011;34408;51.426;5.444;2022-12-04T00:26:03;47.30;;;23.85;;
48613;SDS011;34408;51.426;5.444;2022-12-04T00:28:36;48.10;;;24.10;;
48613;SDS011;34408;51.426;5.444;2022-12-04T00:31:04;45.30;;;23.75;;
48613;SDS011;34408;51.426;5.444;2022-12-04T00:33:34;45.38;;;22.83;;
48613;SDS011;34408;51.426;5.444;2022-12-04T00:36:03;40.78;;;22.80;;
48613;SDS011;34408;51.426;5.444;2022-12-04T00:38:32;42.65;;;21.70;;
48613;SDS011;34408;51.426;5.444;2022-12-04T00:41:00;44.00;;;22.95;;
48613;SDS011;34408;51.426;5.444;2022-12-04T00:43:28;44.67;;;22.77;;
48613;SDS011;34408;51.426;5.444;2022-12-04T00:45:57;46.08;;;22.95;;
48613;SDS011;34408;51.426;5.444;2022-12-04T00:48:25;42.42;;;23.70;;
48613;SDS011;34408;51.426;5.444;2022-12-04T00:50:54;47.28;;;23.52;;
48613;SDS011;34408;51.426;5.444;2022-12-04T00:53:24;41.38;;;22.63;;
48613;SDS011;34408;51.426;5.444;2022-12-04T00:55:51;42.58;;;22.17;;
48613;SDS011;34408;51.426;5.444;2022-12-04T00:58:19;49.75;;;24.10;;
48613;SDS011;34408;51.426;5.444;2022-12-04T01:00:47;45.42;;;23.35;;
48613;SDS011;34408;51.426;5.444;2022-12-04T01:03:14;40.63;;;22.27;;
48613;SDS011;34408;51.426;5.444;2022-12-04T01:05:43;45.70;;;23.00;;
48613;SDS011;34408;51.426;5.444;2022-12-04T01:08:13;43.83;;;22.58;;
48613;SDS011;34408;51.426;5.444;2022-12-04T01:10:41;42.95;;;23.20;;
48613;SDS011;34408;51.426;5.444;2022-12-04T01:13:08;41.13;;;23.00;;
48613;SDS011;34408;51.426;5.444;2022-12-04T01:15:37;47.65;;;24.00;;
48613;SDS011;34408;51.426;5.444;2022-12-04T01:18:05;44.28;;;23.33;;
48613;SDS011;34408;51.426;5.444;2022-12-04T01:20:33;43.13;;;22.33;;
48613;SDS011;34408;51.426;5.444;2022-12-04T01:23:01;42.92;;;23.00;;
48613;SDS011;34408;51.426;5.444;2022-12-04T01:25:30;42.67;;;22.90;;
48613;SDS011;34408;51.426;5.444;2022-12-04T01:27:58;44.92;;;23.80;;
48613;SDS011;34408;51.426;5.444;2022-12-04T01:30:26;41.13;;;21.67;;
48613;SDS011;34408;51.426;5.444;2022-12-04T01:32:54;45.78;;;22.90;;
48613;SDS011;34408;51.426;5.444;2022-12-04T01:35:22;47.47;;;23.75;;
48613;SDS011;34408;51.426;5.444;2022-12-04T01:37:50;39.40;;;22.08;;
48613;SDS011;34408;51.426;5.444;2022-12-04T01:40:17;42.97;;;23.05;;
48613;SDS011;34408;51.426;5.444;2022-12-04T01:42:47;42.97;;;22.27;;
48613;SDS011;34408;51.426;5.444;2022-12-04T01:45:32;45.45;;;22.95;;
48613;SDS011;34408;51.426;5.444;2022-12-04T01:48:06;44.35;;;22.15;;
48613;SDS011;34408;51.426;5.444;2022-12-04T01:50:39;44.28;;;24.10;;
48613;SDS011;34408;51.426;5.444;2022-12-04T01:53:07;46.08;;;23.77;;
48613;SDS011;34408;51.426;5.444;2022-12-04T01:55:35;41.53;;;21.55;;
48613;SDS011;34408;51.426;5.444;2022-12-04T01:58:04;42.38;;;22.67;;
48613;SDS011;34408;51.426;5.444;2022-12-04T02:00:33;42.60;;;22.00;;
48613;SDS011;34408;51.426;5.444;2022-12-04T02:03:01;44.58;;;22.67;;
48613;SDS011;34408;51.426;5.444;2022-12-04T02:05:29;41.08;;;21.88;;
48613;SDS011;34408;51.426;5.444;2022-12-04T02:07:58;41.65;;;22.40;;
48613;SDS011;34408;51.426;5.444;2022-12-04T02:10:30;43.67;;;23.02;;
48613;SDS011;34408;51.426;5.444;2022-12-04T02:13:09;40.65;;;23.15;;
48613;SDS011;34408;51.426;5.444;2022-12-04T02:15:44;41.97;;;23.65;;
48613;SDS011;34408;51.426;5.444;2022-12-04T02:18:19;44.10;;;21.25;;
48613;SDS011;34408;51.426;5.444;2022-12-04T02:20:56;40.88;;;22.63;;
48613;SDS011;34408;51.426;5.444;2022-12-04T02:23:35;39.15;;;22.13;;
48613;SDS011;34408;51.426;5.444;2022-12-04T02:26:31;42.28;;;22.55;;
48613;SDS011;34408;51.426;5.444;2022-12-04T02:29:08;43.10;;;23.33;;
48613;SDS011;34408;51.426;5.444;2022-12-04T02:31:44;39.42;;;22.88;;
48613;SDS011;34408;51.426;5.444;2022-12-04T02:34:19;42.85;;;23.75;;
48613;SDS011;34408;51.426;5.444;2022-12-04T02:36:53;42.00;;;22.02;;
48613;SDS011;34408;51.426;5.444;2022-12-04T02:39:27;41.50;;;22.98;;
48613;SDS011;34408;51.426;5.444;2022-12-04T02:42:02;42.67;;;23.17;;
48613;SDS011;34408;51.426;5.444;2022-12-04T02:44:36;40.88;;;22.10;;
48613;SDS011;34408;51.426;5.444;2022-12-04T02:47:08;40.85;;;22.02;;
48613;SDS011;34408;51.426;5.444;2022-12-04T02:49:40;41.63;;;21.98;;
48613;SDS011;34408;51.426;5.444;2022-12-04T02:52:11;40.28;;;22.42;;
48613;SDS011;34408;51.426;5.444;2022-12-04T02:54:45;41.80;;;24.08;;
48613;SDS011;34408;51.426;5.444;2022-12-04T02:57:18;41.97;;;22.77;;
48613;SDS011;34408;51.426;5.444;2022-12-04T02:59:50;37.55;;;22.35;;
48613;SDS011;34408;51.426;5.444;2022-12-04T03:02:22;39.00;;;22.67;;
48613;SDS011;34408;51.426;5.444;2022-12-04T03:04:54;41.50;;;23.70;;
48613;SDS011;34408;51.426;5.444;2022-12-04T03:07:29;43.25;;;24.20;;
48613;SDS011;34408;51.426;5.444;2022-12-04T03:10:02;41.95;;;22.90;;
48613;SDS011;34408;51.426;5.444;2022-12-04T03:12:37;42.08;;;23.48;;
48613;SDS011;34408;51.426;5.444;2022-12-04T03:15:11;43.95;;;24.02;;
48613;SDS011;34408;51.426;5.444;2022-12-04T03:17:45;41.33;;;22.67;;
48613;SDS011;34408;51.426;5.444;2022-12-04T03:20:18;48.78;;;24.25;;
48613;SDS011;34408;51.426;5.444;2022-12-04T03:22:50;44.35;;;24.25;;
48613;SDS011;34408;51.426;5.444;2022-12-04T03:25:21;39.78;;;23.48;;
48613;SDS011;34408;51.426;5.444;2022-12-04T03:28:02;39.20;;;22.35;;
48613;SDS011;34408;51.426;5.444;2022-12-04T03:30:35;42.22;;;23.25;;
48613;SDS011;34408;51.426;5.444;2022-12-04T03:33:11;42.83;;;24.10;;
48613;SDS011;34408;51.426;5.444;2022-12-04T03:35:42;42.47;;;23.70;;
48613;SDS011;34408;51.426;5.444;2022-12-04T03:38:15;43.33;;;23.45;;
48613;SDS011;34408;51.426;5.444;2022-12-04T03:40:48;44.53;;;24.58;;
48613;SDS011;34408;51.426;5.444;2022-12-04T03:43:22;40.38;;;23.40;;
48613;SDS011;34408;51.426;5.444;2022-12-04T03:45:56;41.03;;;23.65;;
48613;SDS011;34408;51.426;5.444;2022-12-04T03:48:30;47.10;;;24.05;;
48613;SDS011;34408;51.426;5.444;2022-12-04T03:51:06;42.70;;;23.05;;
48613;SDS011;34408;51.426;5.444;2022-12-04T03:53:46;43.22;;;25.30;;
48613;SDS011;34408;51.426;5.444;2022-12-04T03:56:18;42.15;;;23.63;;
48613;SDS011;34408;51.426;5.444;2022-12-04T03:58:49;42.50;;;23.60;;
48613;SDS011;34408;51.426;5.444;2022-12-04T04:01:24;42.00;;;23.70;;
48613;SDS011;34408;51.426;5.444;2022-12-04T04:03:59;40.75;;;24.08;;
48613;SDS011;34408;51.426;5.444;2022-12-04T04:06:31;42.35;;;24.75;;
48613;SDS011;34408;51.426;5.444;2022-12-04T04:09:08;41.85;;;24.67;;
48613;SDS011;34408;51.426;5.444;2022-12-04T04:11:41;45.60;;;23.80;;
48613;SDS011;34408;51.426;5.444;2022-12-04T04:14:14;44.72;;;25.13;;
48613;SDS011;34408;51.426;5.444;2022-12-04T04:17:07;43.28;;;24.20;;
48613;SDS011;34408;51.426;5.444;2022-12-04T04:20:04;47.90;;;25.20;;
48613;SDS011;34408;51.426;5.444;2022-12-04T04:22:53;47.83;;;25.02;;
48613;SDS011;34408;51.426;5.444;2022-12-04T04:25:42;45.95;;;24.42;;
48613;SDS011;34408;51.426;5.444;2022-12-04T04:28:31;45.58;;;25.70;;
48613;SDS011;34408;51.426;5.444;2022-12-04T04:31:04;45.75;;;24.73;;
48613;SDS011;34408;51.426;5.444;2022-12-04T04:33:40;45.88;;;25.73;;
48613;SDS011;34408;51.426;5.444;2022-12-04T04:36:16;43.55;;;23.90;;
48613;SDS011;34408;51.426;5.444;2022-12-04T04:38:51;43.95;;;24.25;;
48613;SDS011;34408;51.426;5.444;2022-12-04T04:41:28;42.47;;;25.38;;
48613;SDS011;34408;51.426;5.444;2022-12-04T04:44:04;42.33;;;24.92;;
48613;SDS011;34408;51.426;5.444;2022-12-04T04:46:43;44.75;;;25.30;;
48613;SDS011;34408;51.426;5.444;2022-12-04T04:49:15;49.83;;;26.00;;
48613;SDS011;34408;51.426;5.444;2022-12-04T04:51:44;46.63;;;25.67;;
48613;SDS011;34408;51.426;5.444;2022-12-04T04:54:13;45.30;;;25.80;;
48613;SDS011;34408;51.426;5.444;2022-12-04T04:56:43;45.33;;;23.88;;
48613;SDS011;34408;51.426;5.444;2022-12-04T04:59:12;46.70;;;24.50;;
48613;SDS011;34408;51.426;5.444;2022-12-04T05:01:41;44.28;;;24.13;;
48613;SDS011;34408;51.426;5.444;2022-12-04T05:04:12;48.80;;;25.00;;
48613;SDS011;34408;51.426;5.444;2022-12-04T05:06:41;44.78;;;25.85;;
48613;SDS011;34408;51.426;5.444;2022-12-04T05:09:09;44.05;;;23.52;;
48613;SDS011;34408;51.426;5.444;2022-12-04T05:11:36;43.38;;;24.10;;
48613;SDS011;34408;51.426;5.444;2022-12-04T05:14:04;48.90;;;26.08;;
48613;SDS011;34408;51.426;5.444;2022-12-04T05:16:32;40.40;;;23.23;;
48613;SDS011;34408;51.426;5.444;2022-12-04T05:18:59;43.33;;;25.70;;
48613;SDS011;34408;51.426;5.444;2022-12-04T05:21:46;44.58;;;24.98;;
48613;SDS011;34408;51.426;5.444;2022-12-04T05:24:14;43.95;;;24.00;;
48613;SDS011;34408;51.426;5.444;2022-12-04T05:26:42;42.30;;;25.05;;
48613;SDS011;34408;51.426;5.444;2022-12-04T05:29:09;43.10;;;24.40;;
48613;SDS011;34408;51.426;5.444;2022-12-04T05:31:37;43.45;;;24.63;;
48613;SDS011;34408;51.426;5.444;2022-12-04T05:34:05;43.15;;;24.92;;
48613;SDS011;34408;51.426;5.444;2022-12-04T05:36:33;46.42;;;24.88;;
48613;SDS011;34408;51.426;5.444;2022-12-04T05:39:02;45.78;;;24.90;;
48613;SDS011;34408;51.426;5.444;2022-12-04T05:41:29;46.65;;;25.92;;
48613;SDS011;34408;51.426;5.444;2022-12-04T05:43:57;44.78;;;24.17;;
48613;SDS011;34408;51.426;5.444;2022-12-04T05:46:25;43.03;;;24.27;;
48613;SDS011;34408;51.426;5.444;2022-12-04T05:48:53;43.58;;;24.40;;
48613;SDS011;34408;51.426;5.444;2022-12-04T05:51:20;46.65;;;25.58;;
48613;SDS011;34408;51.426;5.444;2022-12-04T05:53:49;43.55;;;25.23;;
48613;SDS011;34408;51.426;5.444;2022-12-04T05:56:19;43.35;;;25.08;;
48613;SDS011;34408;51.426;5.444;2022-12-04T05:58:47;46.80;;;24.65;;
48613;SDS011;34408;51.426;5.444;2022-12-04T06:01:16;47.60;;;26.08;;
48613;SDS011;34408;51.426;5.444;2022-12-04T06:03:45;47.40;;;24.58;;
48613;SDS011;34408;51.426;5.444;2022-12-04T06:06:13;45.53;;;26.15;;
48613;SDS011;34408;51.426;5.444;2022-12-04T06:08:47;44.13;;;24.27;;
48613;SDS011;34408;51.426;5.444;2022-12-04T06:11:16;50.08;;;27.75;;
48613;SDS011;34408;51.426;5.444;2022-12-04T06:13:47;48.03;;;25.10;;
48613;SDS011;34408;51.426;5.444;2022-12-04T06:16:16;44.13;;;25.10;;
48613;SDS011;34408;51.426;5.444;2022-12-04T06:18:47;47.00;;;25.42;;
48613;SDS011;34408;51.426;5.444;2022-12-04T06:21:17;42.35;;;24.75;;
48613;SDS011;34408;51.426;5.444;2022-12-04T06:23:46;42.67;;;24.50;;
48613;SDS011;34408;51.426;5.444;2022-12-04T06:26:14;41.85;;;24.00;;
48613;SDS011;34408;51.426;5.444;2022-12-04T06:28:41;42.40;;;23.90;;
48613;SDS011;34408;51.426;5.444;2022-12-04T06:31:12;48.35;;;25.33;;
48613;SDS011;34408;51.426;5.444;2022-12-04T06:33:41;42.97;;;23.83;;
48613;SDS011;34408;51.426;5.444;2022-12-04T06:36:09;44.45;;;24.88;;
48613;SDS011;34408;51.426;5.444;2022-12-04T06:38:38;44.47;;;23.48;;
48613;SDS011;34408;51.426;5.444;2022-12-04T06:41:07;43.15;;;24.20;;
48613;SDS011;34408;51.426;5.444;2022-12-04T06:43:36;47.47;;;25.00;;
48613;SDS011;34408;51.426;5.444;2022-12-04T06:46:05;45.22;;;24.88;;
48613;SDS011;34408;51.426;5.444;2022-12-04T06:48:35;46.55;;;24.90;;
48613;SDS011;34408;51.426;5.444;2022-12-04T06:51:04;43.58;;;24.52;;
48613;SDS011;34408;51.426;5.444;2022-12-04T06:53:33;46.15;;;25.27;;
48613;SDS011;34408;51.426;5.444;2022-12-04T06:56:12;39.97;;;24.00;;
48613;SDS011;34408;51.426;5.444;2022-12-04T06:58:43;44.30;;;24.70;;
48613;SDS011;34408;51.426;5.444;2022-12-04T07:01:11;42.78;;;23.80;;
48613;SDS011;34408;51.426;5.444;2022-12-04T07:03:42;46.78;;;26.33;;
48613;SDS011;34408;51.426;5.444;2022-12-04T07:06:17;42.08;;;22.83;;
48613;SDS011;34408;51.426;5.444;2022-12-04T07:08:49;44.55;;;25.50;;
48613;SDS011;34408;51.426;5.444;2022-12-04T07:11:18;46.83;;;23.92;;
48613;SDS011;34408;51.426;5.444;2022-12-04T07:13:47;47.00;;;26.08;;
48613;SDS011;34408;51.426;5.444;2022-12-04T07:16:16;47.22;;;24.35;;
48613;SDS011;34408;51.426;5.444;2022-12-04T07:18:47;43.88;;;24.40;;
48613;SDS011;34408;51.426;5.444;2022-12-04T07:21:19;44.10;;;23.75;;
48613;SDS011;34408;51.426;5.444;2022-12-04T07:23:48;43.08;;;24.02;;
48613;SDS011;34408;51.426;5.444;2022-12-04T07:26:16;43.50;;;25.17;;
48613;SDS011;34408;51.426;5.444;2022-12-04T07:28:45;41.70;;;25.10;;
48613;SDS011;34408;51.426;5.444;2022-12-04T07:31:13;42.20;;;24.15;;
48613;SDS011;34408;51.426;5.444;2022-12-04T07:33:43;41.72;;;24.13;;
48613;SDS011;34408;51.426;5.444;2022-12-04T07:36:13;44.13;;;24.00;;
48613;SDS011;34408;51.426;5.444;2022-12-04T07:38:44;44.55;;;25.20;;
48613;SDS011;34408;51.426;5.444;2022-12-04T07:41:13;40.97;;;23.92;;
48613;SDS011;34408;51.426;5.444;2022-12-04T07:43:42;44.05;;;23.20;;
48613;SDS011;34408;51.426;5.444;2022-12-04T07:46:10;40.63;;;24.27;;
48613;SDS011;34408;51.426;5.444;2022-12-04T07:48:39;41.38;;;23.65;;
48613;SDS011;34408;51.426;5.444;2022-12-04T07:51:08;43.58;;;24.38;;
48613;SDS011;34408;51.426;5.444;2022-12-04T07:53:38;39.88;;;23.20;;
48613;SDS011;34408;51.426;5.444;2022-12-04T07:56:07;40.80;;;22.83;;
48613;SDS011;34408;51.426;5.444;2022-12-04T07:58:37;38.60;;;21.63;;
48613;SDS011;34408;51.426;5.444;2022-12-04T08:01:06;37.30;;;21.98;;
48613;SDS011;34408;51.426;5.444;2022-12-04T08:03:35;37.20;;;22.23;;
48613;SDS011;34408;51.426;5.444;2022-12-04T08:06:10;42.88;;;23.52;;
48613;SDS011;34408;51.426;5.444;2022-12-04T08:08:40;40.47;;;21.23;;
48613;SDS011;34408;51.426;5.444;2022-12-04T08:11:08;41.97;;;22.08;;
48613;SDS011;34408;51.426;5.444;2022-12-04T08:13:37;39.05;;;23.48;;
48613;SDS011;34408;51.426;5.444;2022-12-04T08:16:06;35.83;;;20.77;;
48613;SDS011;34408;51.426;5.444;2022-12-04T08:18:36;37.88;;;21.35;;
48613;SDS011;34408;51.426;5.444;2022-12-04T08:21:06;33.83;;;20.25;;
48613;SDS011;34408;51.426;5.444;2022-12-04T08:23:37;35.13;;;21.10;;
48613;SDS011;34408;51.426;5.444;2022-12-04T08:26:08;34.25;;;20.45;;
48613;SDS011;34408;51.426;5.444;2022-12-04T08:28:36;41.47;;;22.02;;
48613;SDS011;34408;51.426;5.444;2022-12-04T08:31:05;36.97;;;20.50;;
48613;SDS011;34408;51.426;5.444;2022-12-04T08:33:34;35.83;;;21.10;;
48613;SDS011;34408;51.426;5.444;2022-12-04T08:36:04;36.45;;;21.23;;
48613;SDS011;34408;51.426;5.444;2022-12-04T08:38:32;39.30;;;21.20;;
48613;SDS011;34408;51.426;5.444;2022-12-04T08:41:00;36.47;;;20.65;;
48613;SDS011;34408;51.426;5.444;2022-12-04T08:43:30;34.42;;;20.02;;
48613;SDS011;34408;51.426;5.444;2022-12-04T08:46:00;34.63;;;20.20;;
48613;SDS011;34408;51.426;5.444;2022-12-04T08:48:29;37.13;;;20.08;;
48613;SDS011;34408;51.426;5.444;2022-12-04T08:50:57;32.85;;;19.92;;
48613;SDS011;34408;51.426;5.444;2022-12-04T08:53:25;36.08;;;19.73;;
48613;SDS011;34408;51.426;5.444;2022-12-04T08:55:53;33.65;;;20.25;;
48613;SDS011;34408;51.426;5.444;2022-12-04T08:58:21;33.00;;;19.75;;
48613;SDS011;34408;51.426;5.444;2022-12-04T09:00:51;32.60;;;18.92;;
48613;SDS011;34408;51.426;5.444;2022-12-04T09:03:18;30.92;;;19.52;;
48613;SDS011;34408;51.426;5.444;2022-12-04T09:05:57;33.15;;;18.63;;
48613;SDS011;34408;51.426;5.444;2022-12-04T09:08:25;34.53;;;19.10;;
48613;SDS011;34408;51.426;5.444;2022-12-04T09:10:53;34.20;;;19.15;;
48613;SDS011;34408;51.426;5.444;2022-12-04T09:13:20;31.38;;;18.33;;
48613;SDS011;34408;51.426;5.444;2022-12-04T09:15:48;33.55;;;18.45;;
48613;SDS011;34408;51.426;5.444;2022-12-04T09:18:17;33.25;;;18.95;;
48613;SDS011;34408;51.426;5.444;2022-12-04T09:20:50;30.38;;;18.73;;
48613;SDS011;34408;51.426;5.444;2022-12-04T09:23:21;31.02;;;19.33;;
48613;SDS011;34408;51.426;5.444;2022-12-04T09:25:49;29.02;;;17.80;;
48613;SDS011;34408;51.426;5.444;2022-12-04T09:28:17;30.90;;;17.52;;
48613;SDS011;34408;51.426;5.444;2022-12-04T09:30:54;29.33;;;18.27;;
48613;SDS011;34408;51.426;5.444;2022-12-04T09:33:24;26.98;;;16.10;;
48613;SDS011;34408;51.426;5.444;2022-12-04T09:35:52;33.10;;;17.88;;
48613;SDS011;34408;51.426;5.444;2022-12-04T09:38:19;29.80;;;17.48;;
48613;SDS011;34408;51.426;5.444;2022-12-04T09:40:49;27.83;;;17.33;;
48613;SDS011;34408;51.426;5.444;2022-12-04T09:43:26;27.17;;;16.35;;
48613;SDS011;34408;51.426;5.444;2022-12-04T09:45:59;25.70;;;15.57;;
48613;SDS011;34408;51.426;5.444;2022-12-04T09:48:36;25.80;;;15.57;;
48613;SDS011;34408;51.426;5.444;2022-12-04T09:51:08;25.95;;;15.35;;
48613;SDS011;34408;51.426;5.444;2022-12-04T09:53:44;29.38;;;16.85;;
48613;SDS011;34408;51.426;5.444;2022-12-04T09:56:15;28.50;;;15.90;;
48613;SDS011;34408;51.426;5.444;2022-12-04T09:58:46;28.60;;;16.65;;
48613;SDS011;34408;51.426;5.444;2022-12-04T10:01:19;26.35;;;15.07;;
48613;SDS011;34408;51.426;5.444;2022-12-04T10:03:51;26.80;;;16.40;;
48613;SDS011;34408;51.426;5.444;2022-12-04T10:06:25;26.10;;;15.05;;
48613;SDS011;34408;51.426;5.444;2022-12-04T10:08:59;27.85;;;15.25;;
48613;SDS011;34408;51.426;5.444;2022-12-04T10:11:32;27.25;;;15.70;;
48613;SDS011;34408;51.426;5.444;2022-12-04T10:14:17;29.80;;;16.60;;
48613;SDS011;34408;51.426;5.444;2022-12-04T10:17:12;26.70;;;15.13;;
48613;SDS011;34408;51.426;5.444;2022-12-04T10:20:01;26.80;;;14.65;;
48613;SDS011;34408;51.426;5.444;2022-12-04T10:22:40;25.83;;;14.77;;
48613;SDS011;34408;51.426;5.444;2022-12-04T10:25:20;25.67;;;15.43;;
48613;SDS011;34408;51.426;5.444;2022-12-04T10:27:49;27.20;;;16.60;;
48613;SDS011;34408;51.426;5.444;2022-12-04T10:30:22;26.00;;;14.88;;
48613;SDS011;34408;51.426;5.444;2022-12-04T10:32:53;25.85;;;15.07;;
48613;SDS011;34408;51.426;5.444;2022-12-04T10:35:26;24.10;;;14.70;;
48613;SDS011;34408;51.426;5.444;2022-12-04T10:37:56;22.60;;;13.75;;
48613;SDS011;34408;51.426;5.444;2022-12-04T10:40:30;27.45;;;16.00;;
48613;SDS011;34408;51.426;5.444;2022-12-04T10:43:03;29.10;;;15.95;;
48613;SDS011;34408;51.426;5.444;2022-12-04T10:45:38;25.02;;;15.40;;
48613;SDS011;34408;51.426;5.444;2022-12-04T10:48:06;26.42;;;14.80;;
48613;SDS011;34408;51.426;5.444;2022-12-04T10:50:39;25.45;;;15.40;;
48613;SDS011;34408;51.426;5.444;2022-12-04T10:53:08;29.23;;;15.20;;
48613;SDS011;34408;51.426;5.444;2022-12-04T10:55:39;26.17;;;15.95;;
48613;SDS011;34408;51.426;5.444;2022-12-04T10:58:13;26.67;;;16.08;;
48613;SDS011;34408;51.426;5.444;2022-12-04T11:00:42;26.35;;;15.73;;
48613;SDS011;34408;51.426;5.444;2022-12-04T11:03:21;26.77;;;15.25;;
48613;SDS011;34408;51.426;5.444;2022-12-04T11:05:54;24.45;;;14.85;;
48613;SDS011;34408;51.426;5.444;2022-12-04T11:08:25;24.70;;;14.63;;
48613;SDS011;34408;51.426;5.444;2022-12-04T11:10:58;26.95;;;15.80;;
48613;SDS011;34408;51.426;5.444;2022-12-04T11:13:27;23.65;;;15.00;;
48613;SDS011;34408;51.426;5.444;2022-12-04T11:15:55;26.58;;;16.35;;
48613;SDS011;34408;51.426;5.444;2022-12-04T11:18:25;26.02;;;15.05;;
48613;SDS011;34408;51.426;5.444;2022-12-04T11:20:56;24.92;;;15.88;;
48613;SDS011;34408;51.426;5.444;2022-12-04T11:23:25;26.48;;;15.68;;
48613;SDS011;34408;51.426;5.444;2022-12-04T11:25:58;27.67;;;17.15;;
48613;SDS011;34408;51.426;5.444;2022-12-04T11:28:31;24.20;;;14.88;;
48613;SDS011;34408;51.426;5.444;2022-12-04T11:33:39;24.45;;;14.98;;
48613;SDS011;34408;51.426;5.444;2022-12-04T11:36:17;25.13;;;15.27;;
48613;SDS011;34408;51.426;5.444;2022-12-04T11:38:48;25.23;;;15.77;;
48613;SDS011;34408;51.426;5.444;2022-12-04T11:41:24;26.05;;;14.80;;
48613;SDS011;34408;51.426;5.444;2022-12-04T11:43:53;24.17;;;15.45;;
48613;SDS011;34408;51.426;5.444;2022-12-04T11:46:26;25.65;;;15.35;;
48613;SDS011;34408;51.426;5.444;2022-12-04T11:48:55;25.30;;;14.55;;
48613;SDS011;34408;51.426;5.444;2022-12-04T11:51:27;24.85;;;14.38;;
48613;SDS011;34408;51.426;5.444;2022-12-04T11:54:12;26.50;;;14.43;;
48613;SDS011;34408;51.426;5.444;2022-12-04T11:56:48;23.70;;;14.23;;
48613;SDS011;34408;51.426;5.444;2022-12-04T11:59:32;20.95;;;12.63;;
48613;SDS011;34408;51.426;5.444;2022-12-04T12:02:14;24.17;;;14.52;;
48613;SDS011;34408;51.426;5.444;2022-12-04T12:08:01;24.42;;;14.73;;
48613;SDS011;34408;51.426;5.444;2022-12-04T12:10:40;23.70;;;15.07;;
48613;SDS011;34408;51.426;5.444;2022-12-04T12:13:15;25.50;;;14.25;;
48613;SDS011;34408;51.426;5.444;2022-12-04T12:15:54;24.80;;;14.10;;
48613;SDS011;34408;51.426;5.444;2022-12-04T12:18:40;23.17;;;14.48;;
48613;SDS011;34408;51.426;5.444;2022-12-04T12:21:19;25.13;;;15.68;;
48613;SDS011;34408;51.426;5.444;2022-12-04T12:24:00;22.67;;;15.32;;
48613;SDS011;34408;51.426;5.444;2022-12-04T12:26:38;24.25;;;14.65;;
48613;SDS011;34408;51.426;5.444;2022-12-04T12:29:19;24.35;;;15.57;;
48613;SDS011;34408;51.426;5.444;2022-12-04T12:32:00;22.83;;;15.05;;
48613;SDS011;34408;51.426;5.444;2022-12-04T12:34:36;22.75;;;14.98;;
48613;SDS011;34408;51.426;5.444;2022-12-04T12:37:15;23.73;;;14.52;;
48613;SDS011;34408;51.426;5.444;2022-12-04T12:39:52;22.33;;;14.77;;
48613;SDS011;34408;51.426;5.444;2022-12-04T12:42:27;25.40;;;15.95;;
48613;SDS011;34408;51.426;5.444;2022-12-04T12:45:01;26.98;;;15.88;;
48613;SDS011;34408;51.426;5.444;2022-12-04T12:47:35;26.60;;;14.85;;
48613;SDS011;34408;51.426;5.444;2022-12-04T12:50:09;24.90;;;15.80;;
48613;SDS011;34408;51.426;5.444;2022-12-04T12:52:44;24.60;;;15.55;;
48613;SDS011;34408;51.426;5.444;2022-12-04T12:55:19;27.83;;;16.80;;
48613;SDS011;34408;51.426;5.444;2022-12-04T12:57:52;25.25;;;15.70;;
48613;SDS011;34408;51.426;5.444;2022-12-04T13:00:26;23.70;;;14.93;;
48613;SDS011;34408;51.426;5.444;2022-12-04T13:02:59;24.17;;;15.40;;
48613;SDS011;34408;51.426;5.444;2022-12-04T13:05:32;23.00;;;14.02;;
48613;SDS011;34408;51.426;5.444;2022-12-04T13:08:05;23.77;;;15.57;;
48613;SDS011;34408;51.426;5.444;2022-12-04T13:10:46;25.85;;;15.20;;
48613;SDS011;34408;51.426;5.444;2022-12-04T13:13:21;26.70;;;15.52;;
48613;SDS011;34408;51.426;5.444;2022-12-04T13:15:53;23.33;;;15.65;;
48613;SDS011;34408;51.426;5.444;2022-12-04T13:18:24;22.10;;;14.52;;
48613;SDS011;34408;51.426;5.444;2022-12-04T13:20:55;22.50;;;14.68;;
48613;SDS011;34408;51.426;5.444;2022-12-04T13:23:32;22.08;;;14.10;;
48613;SDS011;34408;51.426;5.444;2022-12-04T13:26:14;25.63;;;15.60;;
48613;SDS011;34408;51.426;5.444;2022-12-04T13:28:55;23.25;;;14.55;;
48613;SDS011;34408;51.426;5.444;2022-12-04T13:31:31;23.20;;;14.70;;
48613;SDS011;34408;51.426;5.444;2022-12-04T13:34:08;25.13;;;14.55;;
48613;SDS011;34408;51.426;5.444;2022-12-04T13:36:55;25.17;;;15.20;;
48613;SDS011;34408;51.426;5.444;2022-12-04T13:42:42;22.98;;;15.07;;
48613;SDS011;34408;51.426;5.444;2022-12-04T13:45:11;23.52;;;14.20;;
48613;SDS011;34408;51.426;5.444;2022-12-04T13:47:55;24.00;;;13.70;;
48613;SDS011;34408;51.426;5.444;2022-12-04T13:50:27;20.60;;;13.18;;
48613;SDS011;34408;51.426;5.444;2022-12-04T13:52:57;20.40;;;13.50;;
48613;SDS011;34408;51.426;5.444;2022-12-04T13:55:27;20.85;;;13.02;;
48613;SDS011;34408;51.426;5.444;2022-12-04T13:57:59;20.98;;;12.05;;
48613;SDS011;34408;51.426;5.444;2022-12-04T14:00:30;21.80;;;13.25;;
48613;SDS011;34408;51.426;5.444;2022-12-04T14:03:00;21.83;;;13.38;;
48613;SDS011;34408;51.426;5.444;2022-12-04T14:05:31;21.70;;;13.45;;
48613;SDS011;34408;51.426;5.444;2022-12-04T14:08:06;21.50;;;13.95;;
48613;SDS011;34408;51.426;5.444;2022-12-04T14:10:57;21.13;;;13.95;;
48613;SDS011;34408;51.426;5.444;2022-12-04T14:13:40;21.15;;;13.77;;
48613;SDS011;34408;51.426;5.444;2022-12-04T14:16:17;20.83;;;12.95;;
48613;SDS011;34408;51.426;5.444;2022-12-04T14:18:49;20.77;;;12.80;;
48613;SDS011;34408;51.426;5.444;2022-12-04T14:21:19;22.30;;;13.38;;
48613;SDS011;34408;51.426;5.444;2022-12-04T14:23:47;22.58;;;12.70;;
48613;SDS011;34408;51.426;5.444;2022-12-04T14:26:23;24.90;;;13.82;;
48613;SDS011;34408;51.426;5.444;2022-12-04T14:29:27;23.70;;;13.73;;
48613;SDS011;34408;51.426;5.444;2022-12-04T14:32:05;21.50;;;12.93;;
48613;SDS011;34408;51.426;5.444;2022-12-04T14:34:35;21.55;;;13.98;;
48613;SDS011;34408;51.426;5.444;2022-12-04T14:37:04;18.75;;;13.10;;
48613;SDS011;34408;51.426;5.444;2022-12-04T14:39:33;22.27;;;13.45;;
48613;SDS011;34408;51.426;5.444;2022-12-04T14:42:11;19.80;;;12.50;;
48613;SDS011;34408;51.426;5.444;2022-12-04T14:44:42;20.70;;;13.60;;
48613;SDS011;34408;51.426;5.444;2022-12-04T14:47:15;22.25;;;13.18;;
48613;SDS011;34408;51.426;5.444;2022-12-04T14:49:56;20.70;;;12.40;;
48613;SDS011;34408;51.426;5.444;2022-12-04T14:52:36;22.23;;;14.25;;
48613;SDS011;34408;51.426;5.444;2022-12-04T14:55:11;20.27;;;13.32;;
48613;SDS011;34408;51.426;5.444;2022-12-04T14:57:50;20.38;;;12.70;;
48613;SDS011;34408;51.426;5.444;2022-12-04T15:00:23;21.98;;;13.30;;